< Typhoon 201114 2011 Season Typhoon 201116 >
Typhoon 201115 (ROKE)
General InformationTrack Information on Google MapsDetailed Wind InformationAccess Analytics MapList of All Images || NewsDisaster Info.WeblogTrackbackTyphoon FrontTwiphoonTyphoon Now!Typhoon ImaginationResourceGoogle EarthGE AnimationAtom FeedGeoJSON
Detalied Best Track (Time Zone = UTC)
Year Month Day Hour Lat. Long. Pressure (hPa) Wind (kt) Class Image Chart
2011 9 9 12 20.4 144.7 1008 0 2 Image Chart
2011 9 9 18 20.3 143.6 1006 0 2 Image Chart
2011 9 10 00 20.2 142.8 1008 0 2 Image Chart
2011 9 10 06 20.1 141.9 1006 0 2 Image Chart
2011 9 10 12 20.4 140.9 1004 0 2 Image Chart
2011 9 10 18 20.4 139.6 1002 0 2 Image Chart
2011 9 11 00 20.3 138.5 1002 0 2 Image Chart
2011 9 11 06 20.3 137.3 1002 0 2 Image Chart
2011 9 11 12 20.5 136.4 1002 0 2 Image Chart
2011 9 11 18 20.9 135.8 1002 0 2 Image Chart
2011 9 12 00 21.5 136.2 1002 0 2 Image Chart
2011 9 12 06 21.8 136.9 1002 0 2 Image Chart
2011 9 12 12 21.9 137.5 1000 0 2 Image Chart
2011 9 12 18 22.2 138.0 1000 0 2 Image Chart
2011 9 13 00 22.6 138.3 1000 0 2 Image Chart
2011 9 13 06 23.0 138.2 998 35 3 Image Chart
2011 9 13 12 23.4 138.1 998 35 3 Image Chart
2011 9 13 18 23.8 137.8 998 35 3 Image Chart
2011 9 14 00 24.3 137.6 996 35 3 Image Chart
2011 9 14 06 24.6 136.9 996 35 3 Image Chart
2011 9 14 12 25.1 135.3 994 35 3 Image Chart
2011 9 14 18 25.3 133.5 994 35 3 Image Chart
2011 9 15 00 25.4 132.5 992 35 3 Image Chart
2011 9 15 06 25.7 131.5 990 40 3 Image Chart
2011 9 15 12 25.8 131.0 990 40 3 Image Chart
2011 9 15 18 26.0 130.4 990 40 3 Image Chart
2011 9 16 00 26.3 130.1 990 40 3 Image Chart
2011 9 16 06 26.4 129.9 985 45 3 Image Chart
2011 9 16 12 26.1 129.6 985 45 3 Image Chart
2011 9 16 18 25.6 129.7 985 45 3 Image Chart
2011 9 17 00 25.2 129.7 985 45 3 Image Chart
2011 9 17 06 25.0 129.8 980 50 4 Image Chart
2011 9 17 12 24.8 130.3 980 55 4 Image Chart
2011 9 17 18 24.8 130.5 975 60 4 Image Chart
2011 9 18 00 25.3 131.1 975 60 4 Image Chart
2011 9 18 03 25.6 131.0 975 60 4 Image Chart
2011 9 18 06 25.9 130.8 975 60 4 Image Chart
2011 9 18 09 26.1 130.7 975 60 4 Image Chart
2011 9 18 12 26.2 130.5 975 60 4 Image Chart
2011 9 18 15 26.3 130.5 975 60 4 Image Chart
2011 9 18 18 26.4 130.4 975 60 4 Image Chart
2011 9 18 21 26.5 130.5 975 60 4 Image Chart
2011 9 19 00 26.7 130.5 975 60 4 Image Chart
2011 9 19 03 27.2 130.6 975 60 4 Image Chart
2011 9 19 06 27.7 130.4 975 60 4 Image Chart
2011 9 19 09 28.0 130.3 975 60 4 Image Chart
2011 9 19 12 28.2 130.2 970 65 5 Image Chart
2011 9 19 15 28.2 130.4 970 65 5 Image Chart
2011 9 19 18 28.2 130.6 965 70 5 Image Chart
2011 9 19 21 28.4 131.2 965 70 5 Image Chart
2011 9 20 00 28.9 131.6 960 75 5 Image Chart
2011 9 20 03 29.2 131.8 960 75 5 Image Chart
2011 9 20 06 29.3 132.3 950 80 5 Image Chart
2011 9 20 09 29.7 133.0 950 80 5 Image Chart
2011 9 20 12 30.3 133.6 940 85 5 Image Chart
2011 9 20 15 30.9 134.1 940 85 5 Image Chart
2011 9 20 18 31.7 134.7 940 85 5 Image Chart
2011 9 20 21 32.4 135.3 940 85 5 Image Chart
2011 9 21 00 33.0 135.9 950 80 5 Image Chart
2011 9 21 03 33.9 136.9 950 80 5 Image Chart
2011 9 21 05 34.7 137.6 950 80 5 Image Chart
2011 9 21 06 34.9 137.8 955 75 5 Image Chart
2011 9 21 09 35.9 139.2 970 70 5 Image Chart
2011 9 21 12 37.1 140.7 975 65 5 Image Chart
2011 9 21 15 38.7 142.4 975 65 5 Image Chart
2011 9 21 18 40.5 143.6 975 65 5 Image Chart
2011 9 21 21 41.8 145.0 975 65 5 Image Chart
2011 9 22 00 42.7 146.6 980 60 4 Image Chart
2011 9 22 03 43.6 147.8 980 60 4 Image Chart
2011 9 22 06 44.5 149.0 982 0 6 Image Chart
2011 9 22 12 45.8 151.2 984 0 6 Image Chart
2011 9 22 18 46.8 152.9 988 0 6 Image Chart
2011 9 23 00 47.8 155.6 992 0 6 Image Chart
2011 9 23 06 49.0 159.4 996 0 6 Image Chart
2011 9 23 12 50.7 163.8 996 0 6 Image Chart
2011 9 23 18 51.4 167.7 998 0 6 Image Chart
2011 9 24 00 51.9 172.5 1000 0 6 Image Chart
2011 9 24 06 51.9 178.4 1000 0 6 Image Chart
2011 9 24 12 51.2 185.4 1000 0 6 Image Chart
Japan Meteorological Agency Best Track Data | Correction Date : 2011-11-01
< Typhoon 201114 2011 Season Typhoon 201116 >

Help